Time;durP1;ratioP1;P1;durP2;ratioP2;P2;SDS_P1;SDS_P2;PMS_P1;PMS_P2;Temp;Humidity;BMP_temperature;BMP_pressure;BME280_temperature;BME280_humidity;BME280_pressure;Samples;Min_cycle;Max_cycle;Signal;HPM_P1;HPM_P2
2021/07/30 00:00:34;;;;;;;10.13;6.37;;;15.40;99.90;;;;;;5007698;28;20469;-59
2021/07/30 00:03:20;;;;;;;10.93;6.50;;;15.40;99.90;;;;;;5008177;28;20447;-59
2021/07/30 00:06:09;;;;;;;9.37;6.03;;;15.30;99.90;;;;;;4992187;28;20463;-59
2021/07/30 00:08:37;;;;;;;10.43;7.10;;;15.30;99.90;;;;;;5006313;28;20740;-59
2021/07/30 00:11:09;;;;;;;8.50;6.40;;;15.20;99.90;;;;;;5007768;28;20418;-59
2021/07/30 00:13:50;;;;;;;8.07;5.80;;;15.20;99.90;;;;;;5007022;28;20439;-59
2021/07/30 00:16:39;;;;;;;8.53;6.40;;;15.20;99.90;;;;;;5001153;28;20435;-60
2021/07/30 00:19:14;;;;;;;9.50;6.43;;;15.10;99.90;;;;;;5008660;28;21003;-58
2021/07/30 00:21:39;;;;;;;9.37;6.43;;;15.10;99.90;;;;;;5007112;28;20434;-59
2021/07/30 00:24:11;;;;;;;10.40;6.33;;;15.10;99.90;;;;;;5000608;28;20459;-59
2021/07/30 00:26:50;;;;;;;12.13;6.37;;;15.10;99.90;;;;;;5000608;28;20220;-59
2021/07/30 00:29:19;;;;;;;15.40;6.70;;;15.10;99.90;;;;;;5008797;28;20438;-59
2021/07/30 00:31:58;;;;;;;8.77;6.47;;;15.10;99.90;;;;;;4994579;28;20432;-58
2021/07/30 00:34:30;;;;;;;8.53;6.40;;;15.10;99.90;;;;;;5005183;28;20431;-58
2021/07/30 00:36:58;;;;;;;10.90;6.60;;;15.10;99.90;;;;;;5006930;28;20895;-59
2021/07/30 00:39:24;;;;;;;11.33;6.33;;;15.20;99.90;;;;;;4986845;28;20443;-58
2021/07/30 00:41:51;;;;;;;7.40;6.33;;;15.20;99.90;;;;;;5000476;28;20964;-59
2021/07/30 00:44:43;;;;;;;10.50;6.30;;;15.20;99.90;;;;;;4994608;28;20649;-58
2021/07/30 00:47:19;;;;;;;11.60;6.93;;;15.30;99.90;;;;;;4997527;28;20431;-57
2021/07/30 00:49:48;;;;;;;16.63;5.97;;;15.30;99.90;;;;;;5003784;28;20783;-56
2021/07/30 00:52:13;;;;;;;8.90;6.77;;;15.30;99.90;;;;;;5006771;28;20447;-57
2021/07/30 00:54:51;;;;;;;11.17;7.23;;;15.30;99.90;;;;;;5008369;28;20764;-56
2021/07/30 00:57:23;;;;;;;10.40;6.70;;;15.40;99.90;;;;;;5008788;28;20177;-57
2021/07/30 00:59:59;;;;;;;10.47;6.73;;;15.40;99.90;;;;;;5005607;28;20435;-58
2021/07/30 01:02:30;;;;;;;10.30;6.53;;;15.40;99.90;;;;;;4999279;28;20804;-58
2021/07/30 01:05:15;;;;;;;11.80;6.63;;;15.40;99.90;;;;;;5007072;28;20458;-57
2021/07/30 01:07:44;;;;;;;10.83;7.00;;;15.40;99.90;;;;;;5009062;28;20514;-58
2021/07/30 01:10:30;;;;;;;11.33;6.60;;;15.40;99.90;;;;;;5004079;28;20550;-58
2021/07/30 01:13:08;;;;;;;11.63;6.97;;;15.40;99.90;;;;;;5025204;28;20966;-58
2021/07/30 01:15:38;;;;;;;12.63;6.83;;;15.40;99.90;;;;;;5011133;28;20806;-58
2021/07/30 01:18:04;;;;;;;10.03;6.67;;;15.40;99.90;;;;;;5011277;28;20432;-58
2021/07/30 01:20:34;;;;;;;10.53;7.10;;;15.40;99.90;;;;;;5012294;28;20469;-58
2021/07/30 01:23:04;;;;;;;11.73;6.27;;;15.40;99.90;;;;;;5011412;28;20196;-56
2021/07/30 01:25:30;;;;;;;10.90;7.30;;;15.40;99.90;;;;;;5010896;28;20952;-56
2021/07/30 01:27:59;;;;;;;8.87;6.70;;;15.40;99.90;;;;;;5011525;28;20465;-58
2021/07/30 01:30:40;;;;;;;10.43;7.07;;;15.40;99.90;;;;;;5007651;28;20169;-58
2021/07/30 01:33:17;;;;;;;10.03;7.33;;;15.40;99.90;;;;;;5010072;28;20462;-58
2021/07/30 01:35:45;;;;;;;11.97;6.03;;;15.30;99.90;;;;;;5011939;28;20431;-58
2021/07/30 01:38:16;;;;;;;9.40;6.93;;;15.30;99.90;;;;;;5006746;28;20519;-58
2021/07/30 01:40:47;;;;;;;13.83;6.80;;;15.20;99.90;;;;;;5004055;28;20782;-58
2021/07/30 01:43:24;;;;;;;11.67;6.70;;;15.20;99.90;;;;;;5005853;28;20530;-59
2021/07/30 01:45:51;;;;;;;9.33;6.57;;;15.10;99.90;;;;;;5010013;28;20466;-57
2021/07/30 01:48:25;;;;;;;10.00;7.07;;;15.10;99.90;;;;;;5000235;28;20446;-58
2021/07/30 01:51:10;;;;;;;7.80;5.93;;;15.00;99.90;;;;;;4999079;28;20416;-58
2021/07/30 01:53:38;;;;;;;10.90;6.80;;;15.00;99.90;;;;;;5010132;28;21404;-58
2021/07/30 01:56:09;;;;;;;13.00;7.20;;;15.00;99.90;;;;;;5010518;28;20431;-57
2021/07/30 01:58:37;;;;;;;11.07;6.83;;;15.00;99.90;;;;;;5007948;28;20486;-58
2021/07/30 02:01:25;;;;;;;8.40;6.20;;;15.00;99.90;;;;;;5011692;28;20408;-57
2021/07/30 02:04:11;;;;;;;11.37;6.73;;;15.00;99.90;;;;;;4997896;28;20451;-58
2021/07/30 02:07:08;;;;;;;;;;;;;;;;;;;;;
2021/07/30 02:09:28;;;;;;;7.10;6.07;;;15.00;99.90;;;;;;5006344;28;20425;-58
2021/07/30 02:11:56;;;;;;;10.10;6.50;;;14.90;99.90;;;;;;5010491;28;20507;-59
2021/07/30 02:14:28;;;;;;;12.00;6.97;;;14.90;99.90;;;;;;5010265;28;20414;-58
2021/07/30 02:17:23;;;;;;;9.27;6.60;;;14.90;99.90;;;;;;5009306;28;20434;-58
2021/07/30 02:19:53;;;;;;;8.20;6.40;;;14.90;99.90;;;;;;4964609;28;20815;-58
2021/07/30 02:22:52;;;;;;;10.90;7.53;;;14.90;99.90;;;;;;5008006;28;20423;-59
2021/07/30 02:25:14;;;;;;;14.20;7.23;;;14.80;99.90;;;;;;5005530;28;21069;-58
2021/07/30 02:27:42;;;;;;;7.93;6.43;;;14.80;99.90;;;;;;5010877;28;20435;-58
2021/07/30 02:30:16;;;;;;;11.93;6.53;;;14.70;99.90;;;;;;5006092;28;20909;-58
2021/07/30 02:33:00;;;;;;;12.60;7.27;;;14.70;99.90;;;;;;5022146;23;20507;-59
2021/07/30 02:35:33;;;;;;;10.40;7.57;;;14.60;99.90;;;;;;5028156;28;20422;-60
2021/07/30 02:38:10;;;;;;;9.63;6.70;;;14.60;99.90;;;;;;5027902;28;20517;-57
2021/07/30 02:40:35;;;;;;;10.20;6.73;;;14.60;99.90;;;;;;5027558;28;20811;-56
2021/07/30 02:43:04;;;;;;;13.30;7.37;;;14.50;99.90;;;;;;5014779;28;20466;-59
2021/07/30 02:45:32;;;;;;;9.20;6.83;;;14.50;99.90;;;;;;5028154;28;20204;-59
2021/07/30 02:48:01;;;;;;;9.27;6.63;;;14.50;99.90;;;;;;5030165;28;20826;-59
2021/07/30 02:50:29;;;;;;;8.23;6.13;;;14.40;99.90;;;;;;5029650;28;20465;-61
2021/07/30 02:52:57;;;;;;;10.00;6.87;;;14.40;99.90;;;;;;5026032;28;20451;-59
2021/07/30 02:55:41;;;;;;;11.27;6.50;;;14.40;99.90;;;;;;5024900;28;20899;-59
2021/07/30 02:58:12;;;;;;;9.60;7.23;;;14.30;99.90;;;;;;5023282;28;20541;-59
2021/07/30 03:00:43;;;;;;;10.07;7.00;;;14.30;99.90;;;;;;5027781;28;20422;-59
2021/07/30 03:03:18;;;;;;;8.33;6.80;;;14.30;99.90;;;;;;5029523;28;20469;-59
2021/07/30 03:05:50;;;;;;;13.80;7.57;;;14.30;99.90;;;;;;5013193;28;20450;-59
2021/07/30 03:08:47;;;;;;;11.87;7.90;;;14.20;99.90;;;;;;5027698;28;20514;-59
2021/07/30 03:11:29;;;;;;;11.90;7.03;;;14.20;99.90;;;;;;5003242;28;20415;-59
2021/07/30 03:14:18;;;;;;;10.40;7.00;;;14.10;99.90;;;;;;5027843;28;20438;-59
2021/07/30 03:16:52;;;;;;;11.77;7.30;;;14.10;99.90;;;;;;5024852;28;21005;-59
2021/07/30 03:19:29;;;;;;;13.13;6.43;;;14.10;99.90;;;;;;5030136;28;20398;-58
2021/07/30 03:22:01;;;;;;;10.60;7.70;;;14.00;99.90;;;;;;5031007;28;20472;-59
2021/07/30 03:24:35;;;;;;;10.23;6.67;;;14.10;99.90;;;;;;5013364;28;20469;-59
2021/07/30 03:27:27;;;;;;;11.10;7.33;;;14.10;99.90;;;;;;5018501;28;20432;-59
2021/07/30 03:30:05;;;;;;;9.07;7.40;;;14.00;99.90;;;;;;5029908;28;20415;-58
2021/07/30 03:32:57;;;;;;;10.73;7.57;;;14.00;99.90;;;;;;5012261;28;20409;-59
2021/07/30 03:35:33;;;;;;;11.27;6.97;;;14.00;99.90;;;;;;5010291;28;20431;-59
2021/07/30 03:37:59;;;;;;;16.40;7.47;;;14.00;99.90;;;;;;5020225;28;20430;-58
2021/07/30 03:40:25;;;;;;;9.87;6.93;;;14.00;99.90;;;;;;5011431;28;20439;-59
2021/07/30 03:42:51;;;;;;;12.60;7.40;;;13.90;99.90;;;;;;5028750;28;20210;-60
2021/07/30 03:45:17;;;;;;;10.80;7.40;;;13.90;99.90;;;;;;5028125;28;20454;-59
2021/07/30 03:47:42;;;;;;;9.43;6.67;;;13.90;99.90;;;;;;5028964;28;20176;-59
2021/07/30 03:50:08;;;;;;;9.53;6.20;;;13.90;99.90;;;;;;5029014;28;20184;-59
2021/07/30 03:52:34;;;;;;;15.60;6.23;;;13.80;99.90;;;;;;5010966;28;20698;-59
2021/07/30 03:55:00;;;;;;;12.40;6.20;;;13.70;99.90;;;;;;5028050;28;20434;-59
2021/07/30 03:57:25;;;;;;;11.90;6.77;;;13.70;99.90;;;;;;5029213;28;20176;-60
2021/07/30 03:59:54;;;;;;;8.73;6.30;;;13.70;99.90;;;;;;5011650;28;20180;-60
2021/07/30 04:02:19;;;;;;;9.60;6.80;;;13.60;99.90;;;;;;5008222;28;20230;-59
2021/07/30 04:04:45;;;;;;;12.93;7.43;;;13.70;99.90;;;;;;5028290;28;20820;-59
2021/07/30 04:07:10;;;;;;;8.93;6.70;;;13.70;99.90;;;;;;5019336;28;20171;-59
2021/07/30 04:09:36;;;;;;;17.93;7.70;;;13.70;99.90;;;;;;5009599;28;20384;-60
2021/07/30 04:12:02;;;;;;;14.60;7.40;;;13.70;99.90;;;;;;5009813;28;20194;-59
2021/07/30 04:14:27;;;;;;;11.50;6.97;;;13.60;99.90;;;;;;5009611;28;20218;-59
2021/07/30 04:16:53;;;;;;;12.43;7.80;;;13.60;99.90;;;;;;5010361;28;20259;-60
2021/07/30 04:19:18;;;;;;;10.50;6.67;;;13.60;99.90;;;;;;5029611;28;20167;-60
2021/07/30 04:21:44;;;;;;;10.17;7.43;;;13.60;99.90;;;;;;5024353;28;20253;-60
2021/07/30 04:24:10;;;;;;;10.40;6.80;;;13.60;99.90;;;;;;5009778;28;20196;-61
2021/07/30 04:26:35;;;;;;;9.13;6.63;;;13.60;99.90;;;;;;5009996;28;20200;-59
2021/07/30 04:29:01;;;;;;;9.80;6.87;;;13.70;99.90;;;;;;5026355;28;20173;-60
2021/07/30 04:31:27;;;;;;;11.07;7.50;;;13.70;99.90;;;;;;5011776;28;20183;-58
2021/07/30 04:33:52;;;;;;;15.30;6.50;;;13.80;99.90;;;;;;5008463;28;20285;-60
2021/07/30 04:36:18;;;;;;;8.83;7.30;;;13.80;99.90;;;;;;5024152;28;20186;-61
2021/07/30 04:38:44;;;;;;;18.20;6.97;;;13.90;99.90;;;;;;5034167;28;20190;-59
2021/07/30 04:41:10;;;;;;;13.07;7.90;;;13.90;99.90;;;;;;5029788;28;20187;-58
2021/07/30 04:43:36;;;;;;;13.90;7.73;;;13.90;99.90;;;;;;5025929;28;20968;-59
2021/07/30 04:46:02;;;;;;;8.83;7.10;;;14.00;99.90;;;;;;5013190;28;20545;-59
2021/07/30 04:48:28;;;;;;;14.57;7.10;;;14.00;99.90;;;;;;5027263;28;20183;-59
2021/07/30 04:50:54;;;;;;;11.93;8.10;;;14.10;99.90;;;;;;5029305;28;20429;-59
2021/07/30 04:53:19;;;;;;;12.00;7.10;;;14.10;99.90;;;;;;5025171;28;20200;-59
2021/07/30 04:55:45;;;;;;;9.13;7.23;;;14.10;99.90;;;;;;5016207;28;20644;-58
2021/07/30 04:58:10;;;;;;;13.47;7.60;;;14.20;99.90;;;;;;5037469;28;20176;-58
2021/07/30 05:00:36;;;;;;;11.43;7.47;;;14.20;99.90;;;;;;5024169;28;20214;-59
2021/07/30 05:03:02;;;;;;;8.70;5.80;;;14.20;99.90;;;;;;5024628;28;20219;-60
2021/07/30 05:05:29;;;;;;;12.43;7.77;;;14.20;99.90;;;;;;5027053;28;20724;-60
2021/07/30 05:07:55;;;;;;;13.43;6.70;;;14.30;99.90;;;;;;5032683;28;20434;-60
2021/07/30 05:10:20;;;;;;;13.73;7.90;;;14.30;99.90;;;;;;5021400;28;20442;-57
2021/07/30 05:12:46;;;;;;;14.70;7.50;;;14.30;99.90;;;;;;5027385;28;20202;-57
2021/07/30 05:15:12;;;;;;;10.87;6.70;;;14.30;99.90;;;;;;5029022;28;20176;-61
2021/07/30 05:17:39;;;;;;;11.30;7.40;;;14.30;99.90;;;;;;5024955;28;20175;-60
2021/07/30 05:20:06;;;;;;;12.03;7.17;;;14.20;99.90;;;;;;5013670;28;20876;-59
2021/07/30 05:22:32;;;;;;;11.10;7.13;;;14.20;99.90;;;;;;5024826;28;20838;-60
2021/07/30 05:24:57;;;;;;;13.73;7.97;;;14.30;99.90;;;;;;5050264;28;20935;-59
2021/07/30 05:27:23;;;;;;;10.27;6.63;;;14.30;99.90;;;;;;5043256;28;20202;-60
2021/07/30 05:29:48;;;;;;;13.17;7.20;;;14.30;99.90;;;;;;5030695;28;20684;-61
2021/07/30 05:32:14;;;;;;;10.23;7.27;;;14.40;99.90;;;;;;5027609;28;20188;-60
2021/07/30 05:34:40;;;;;;;11.93;6.83;;;14.60;99.90;;;;;;5031078;28;20211;-59
2021/07/30 05:37:05;;;;;;;11.60;7.23;;;14.70;99.90;;;;;;5030234;28;20171;-61
2021/07/30 05:39:31;;;;;;;14.47;7.70;;;14.80;99.90;;;;;;5031026;28;20256;-60
2021/07/30 05:41:57;;;;;;;7.67;6.40;;;14.80;99.90;;;;;;5030915;28;20168;-60
2021/07/30 05:44:23;;;;;;;10.43;6.63;;;14.90;99.90;;;;;;5047106;28;20977;-59
2021/07/30 05:46:48;;;;;;;12.40;7.90;;;14.90;99.90;;;;;;5031430;28;20255;-59
2021/07/30 05:49:14;;;;;;;17.53;7.60;;;15.00;99.90;;;;;;5019756;28;20230;-60
2021/07/30 05:51:40;;;;;;;13.40;7.07;;;15.10;99.90;;;;;;5028115;28;20176;-60
2021/07/30 05:54:05;;;;;;;8.80;6.00;;;15.20;99.90;;;;;;5028330;28;20613;-63
2021/07/30 05:56:31;;;;;;;13.30;7.53;;;15.40;99.90;;;;;;5031309;28;20263;-59
2021/07/30 05:58:58;;;;;;;11.00;7.00;;;15.50;99.90;;;;;;5030606;28;20176;-60
2021/07/30 06:01:24;;;;;;;10.57;7.10;;;15.60;99.90;;;;;;5030264;28;20168;-60
2021/07/30 06:03:50;;;;;;;11.47;6.77;;;15.70;99.90;;;;;;5032056;28;20445;-60
2021/07/30 06:06:16;;;;;;;13.43;7.10;;;15.70;99.90;;;;;;5036177;28;20500;-59
2021/07/30 06:08:42;;;;;;;10.27;6.77;;;15.70;99.90;;;;;;5022108;28;21233;-60
2021/07/30 06:11:07;;;;;;;10.17;7.03;;;15.70;99.90;;;;;;5029538;28;20223;-59
2021/07/30 06:13:33;;;;;;;11.17;7.90;;;15.70;99.90;;;;;;5046470;28;20758;-60
2021/07/30 06:15:58;;;;;;;10.40;6.30;;;15.80;99.90;;;;;;5040783;28;20167;-59
2021/07/30 06:18:24;;;;;;;10.77;6.83;;;15.80;99.90;;;;;;5033506;28;20171;-60
2021/07/30 06:20:51;;;;;;;13.53;6.70;;;15.90;99.90;;;;;;5037797;28;20184;-60
2021/07/30 06:23:16;;;;;;;11.37;7.90;;;15.90;99.90;;;;;;5015595;28;20212;-62
2021/07/30 06:25:42;;;;;;;10.83;7.30;;;15.90;99.90;;;;;;5038573;28;20466;-62
2021/07/30 06:28:08;;;;;;;9.97;6.70;;;15.90;99.90;;;;;;5057922;28;20230;-62
2021/07/30 06:30:34;;;;;;;11.20;7.43;;;16.00;99.90;;;;;;5045269;28;20195;-62
2021/07/30 06:32:59;;;;;;;14.13;7.50;;;16.00;99.90;;;;;;5042534;28;20730;-60
2021/07/30 06:35:26;;;;;;;11.33;7.33;;;16.00;99.90;;;;;;5033765;28;20202;-59
2021/07/30 06:37:52;;;;;;;12.67;7.47;;;16.10;99.90;;;;;;5032527;28;20597;-60
2021/07/30 06:40:18;;;;;;;11.17;7.37;;;16.10;99.90;;;;;;5030033;28;20542;-60
2021/07/30 06:42:43;;;;;;;15.50;7.10;;;16.20;99.90;;;;;;5042640;28;20588;-60
2021/07/30 06:45:09;;;;;;;11.00;7.70;;;16.30;99.90;;;;;;5023395;28;20259;-60
2021/07/30 06:47:38;;;;;;;19.30;8.20;;;16.30;99.90;;;;;;5034239;28;20521;-59
2021/07/30 06:50:05;;;;;;;14.50;7.53;;;16.50;99.90;;;;;;5031201;28;20423;-60
2021/07/30 06:52:31;;;;;;;11.10;7.87;;;16.60;99.90;;;;;;5030134;28;20438;-60
2021/07/30 06:54:57;;;;;;;11.43;7.67;;;16.80;99.90;;;;;;5028953;28;20501;-59
2021/07/30 06:57:23;;;;;;;18.63;10.10;;;16.90;99.90;;;;;;5030203;28;20950;-60
2021/07/30 06:59:49;;;;;;;17.60;10.40;;;17.00;99.90;;;;;;5029495;28;20410;-59
2021/07/30 07:02:15;;;;;;;18.33;8.97;;;17.20;99.90;;;;;;5035354;28;20184;-60
2021/07/30 07:04:41;;;;;;;10.10;8.10;;;17.20;99.90;;;;;;5026771;28;20931;-60
2021/07/30 07:07:06;;;;;;;9.60;7.00;;;17.30;99.90;;;;;;5032265;28;20502;-60
2021/07/30 07:09:32;;;;;;;9.80;6.70;;;17.40;99.90;;;;;;5023558;28;20180;-60
2021/07/30 07:11:58;;;;;;;20.37;7.77;;;17.50;99.90;;;;;;5021170;28;20180;-60
2021/07/30 07:14:23;;;;;;;12.17;7.63;;;17.60;99.90;;;;;;5019247;28;20219;-59
2021/07/30 07:16:49;;;;;;;17.37;7.80;;;17.70;99.90;;;;;;5005309;28;20227;-60
2021/07/30 07:19:15;;;;;;;12.40;7.53;;;17.80;99.90;;;;;;5024252;28;20619;-59
2021/07/30 07:21:41;;;;;;;13.77;8.50;;;17.90;99.90;;;;;;5023113;28;20713;-60
2021/07/30 07:24:07;;;;;;;14.17;7.43;;;18.00;99.90;;;;;;5027615;28;20306;-59
2021/07/30 07:26:37;;;;;;;9.90;7.00;;;18.10;99.30;;;;;;5029498;28;20537;-60
2021/07/30 07:29:03;;;;;;;8.60;6.20;;;18.20;98.90;;;;;;5019159;28;20552;-60
2021/07/30 07:31:29;;;;;;;11.93;7.43;;;18.30;98.10;;;;;;5021489;28;20442;-60
2021/07/30 07:33:55;;;;;;;12.20;6.70;;;18.40;97.40;;;;;;5023317;28;20466;-60
2021/07/30 07:36:20;;;;;;;10.53;6.47;;;18.40;97.70;;;;;;5017553;28;20184;-61
2021/07/30 07:38:46;;;;;;;9.43;7.03;;;18.50;98.20;;;;;;5027984;28;20499;-60
2021/07/30 07:41:12;;;;;;;9.43;6.93;;;18.60;99.40;;;;;;5029572;28;20190;-60
2021/07/30 07:43:38;;;;;;;9.67;6.40;;;18.80;98.90;;;;;;5033103;28;20705;-59
2021/07/30 07:46:03;;;;;;;9.60;6.60;;;18.80;98.00;;;;;;5042867;28;20262;-60
2021/07/30 07:48:29;;;;;;;14.80;7.20;;;18.90;97.90;;;;;;5029769;28;20426;-60
2021/07/30 07:50:55;;;;;;;10.80;6.50;;;19.10;98.10;;;;;;5023996;28;20198;-60
2021/07/30 07:53:21;;;;;;;14.27;7.90;;;19.20;97.70;;;;;;5029288;28;20785;-59
2021/07/30 07:55:48;;;;;;;14.27;7.90;;;19.30;96.90;;;;;;5030607;28;20708;-60
2021/07/30 07:58:14;;;;;;;12.20;7.60;;;19.30;95.90;;;;;;5031557;28;21111;-58
2021/07/30 08:00:41;;;;;;;11.07;7.57;;;19.40;96.50;;;;;;5029845;28;20435;-59
2021/07/30 08:03:07;;;;;;;11.47;7.80;;;19.50;97.60;;;;;;5029040;28;20268;-59
2021/07/30 08:05:32;;;;;;;10.13;7.87;;;19.70;98.20;;;;;;5029231;28;20461;-59
2021/07/30 08:07:58;;;;;;;10.50;7.40;;;19.90;98.20;;;;;;5027536;28;20667;-59
2021/07/30 08:10:24;;;;;;;11.73;7.40;;;20.10;97.60;;;;;;5027784;28;20179;-60
2021/07/30 08:12:50;;;;;;;13.17;7.10;;;20.20;96.80;;;;;;5027148;28;20453;-59
2021/07/30 08:15:16;;;;;;;10.67;7.17;;;20.40;96.60;;;;;;5003958;28;20197;-59
2021/07/30 08:17:41;;;;;;;11.10;6.90;;;20.50;94.00;;;;;;5029482;28;20195;-59
2021/07/30 08:20:08;;;;;;;16.23;7.60;;;20.60;94.90;;;;;;5023020;28;20190;-60
2021/07/30 08:22:34;;;;;;;14.90;7.63;;;20.70;94.60;;;;;;5025437;28;20192;-60
2021/07/30 08:25:01;;;;;;;14.80;7.70;;;20.80;93.60;;;;;;5040887;28;20434;-60
2021/07/30 08:27:26;;;;;;;19.93;7.60;;;21.00;93.60;;;;;;5012675;28;20878;-60
2021/07/30 08:29:52;;;;;;;8.70;6.40;;;21.10;91.90;;;;;;5027217;28;20519;-60
2021/07/30 08:32:18;;;;;;;8.53;5.63;;;21.10;87.50;;;;;;5024384;28;20185;-60
2021/07/30 08:34:44;;;;;;;8.73;5.93;;;21.10;88.10;;;;;;5040690;28;20206;-61
2021/07/30 08:37:10;;;;;;;7.13;5.70;;;21.20;88.40;;;;;;5028699;28;20438;-59
2021/07/30 08:39:37;;;;;;;11.50;6.23;;;21.30;88.00;;;;;;5040477;28;20187;-59
2021/07/30 08:42:04;;;;;;;10.60;5.50;;;21.40;89.50;;;;;;5033365;28;20500;-60
2021/07/30 08:44:29;;;;;;;10.40;5.97;;;21.50;84.10;;;;;;5020950;28;21008;-58
2021/07/30 08:46:56;;;;;;;10.23;7.20;;;21.60;86.10;;;;;;5023999;28;20516;-59
2021/07/30 08:49:22;;;;;;;9.80;6.20;;;21.60;85.20;;;;;;5028922;28;20637;-59
2021/07/30 08:51:56;;;;;;;10.50;6.23;;;21.60;83.00;;;;;;5019803;28;20459;-57
2021/07/30 08:54:21;;;;;;;9.80;6.23;;;21.60;81.60;;;;;;5022954;28;20200;-60
2021/07/30 08:56:47;;;;;;;7.97;5.80;;;21.60;83.20;;;;;;5028619;28;20433;-59
2021/07/30 08:59:13;;;;;;;8.17;6.57;;;21.60;83.90;;;;;;5028486;28;20176;-60
2021/07/30 09:01:39;;;;;;;8.77;6.13;;;21.50;82.70;;;;;;5024920;28;20183;-59
2021/07/30 09:04:04;;;;;;;7.30;6.03;;;21.50;82.50;;;;;;4996850;28;20281;-59
2021/07/30 09:06:30;;;;;;;8.03;6.30;;;21.50;84.10;;;;;;5019471;28;20226;-60
2021/07/30 09:09:02;;;;;;;11.40;6.50;;;21.50;84.30;;;;;;5013704;28;22055;-60
2021/07/30 09:11:37;;;;;;;9.53;6.57;;;21.60;84.00;;;;;;5014948;28;21171;-60
2021/07/30 09:14:11;;;;;;;8.00;6.47;;;21.80;84.20;;;;;;5013216;28;20461;-60
2021/07/30 09:16:51;;;;;;;11.70;6.07;;;22.00;83.30;;;;;;5018004;28;20440;-60
2021/07/30 09:19:17;;;;;;;8.83;6.10;;;22.10;78.20;;;;;;5013736;28;20449;-60
2021/07/30 09:21:42;;;;;;;13.33;6.50;;;22.10;78.10;;;;;;5015314;28;20438;-64
2021/07/30 09:24:11;;;;;;;8.93;5.87;;;22.20;77.40;;;;;;4994994;28;20457;-63
2021/07/30 09:26:50;;;;;;;7.17;5.77;;;22.30;76.00;;;;;;5015947;28;20246;-60
2021/07/30 09:29:22;;;;;;;8.43;6.20;;;22.40;75.20;;;;;;5017456;28;20430;-59
2021/07/30 09:31:50;;;;;;;7.87;5.60;;;22.60;77.20;;;;;;5023640;28;20960;-57
2021/07/30 09:34:19;;;;;;;7.13;5.57;;;22.80;76.90;;;;;;5030384;28;20453;-63
2021/07/30 09:37:03;;;;;;;7.07;6.10;;;23.00;74.30;;;;;;5032880;28;20426;-62
2021/07/30 09:39:32;;;;;;;7.90;6.20;;;23.00;71.10;;;;;;5013111;28;21269;-59
2021/07/30 09:42:11;;;;;;;10.40;6.70;;;22.90;71.30;;;;;;5030040;28;20445;-60
2021/07/30 09:44:52;;;;;;;12.73;6.50;;;22.90;71.50;;;;;;5019823;28;20450;-59
2021/07/30 09:47:21;;;;;;;9.60;6.60;;;23.00;72.40;;;;;;5026138;28;20780;-59
2021/07/30 09:49:48;;;;;;;11.57;6.20;;;23.10;70.30;;;;;;5024693;28;20430;-59
2021/07/30 09:52:18;;;;;;;9.00;6.70;;;23.20;69.30;;;;;;5025585;28;20420;-59
2021/07/30 09:55:08;;;;;;;10.23;6.13;;;23.40;69.30;;;;;;5020391;28;20807;-60
2021/07/30 09:57:38;;;;;;;10.20;5.70;;;23.40;65.20;;;;;;5022448;28;20437;-60
2021/07/30 10:00:07;;;;;;;7.17;6.30;;;23.50;69.10;;;;;;5026675;28;21134;-59
2021/07/30 10:02:35;;;;;;;8.83;6.27;;;23.60;67.20;;;;;;5019407;28;20407;-60
2021/07/30 10:05:03;;;;;;;7.30;5.60;;;23.80;67.50;;;;;;5028858;28;20426;-59
2021/07/30 10:07:31;;;;;;;6.73;6.03;;;23.80;65.50;;;;;;5029942;28;20422;-59
2021/07/30 10:10:11;;;;;;;7.73;5.80;;;23.90;64.50;;;;;;5030493;28;20434;-59
2021/07/30 10:12:40;;;;;;;9.37;7.20;;;24.00;65.30;;;;;;5037683;28;20444;-60
2021/07/30 10:15:08;;;;;;;6.63;5.67;;;24.10;64.60;;;;;;5031929;28;20441;-59
2021/07/30 10:17:42;;;;;;;6.53;5.70;;;24.10;63.50;;;;;;5030278;28;20491;-59
2021/07/30 10:20:09;;;;;;;8.23;6.33;;;24.20;63.80;;;;;;5030493;28;20395;-60
2021/07/30 10:22:38;;;;;;;7.03;6.27;;;24.40;64.20;;;;;;5021570;28;20922;-59
2021/07/30 10:25:05;;;;;;;7.87;6.30;;;24.50;64.50;;;;;;5028973;28;20427;-58
2021/07/30 10:27:31;;;;;;;8.60;6.43;;;24.70;59.90;;;;;;5033620;28;20461;-60
2021/07/30 10:30:03;;;;;;;8.30;6.30;;;24.80;60.60;;;;;;5010530;28;20834;-59
2021/07/30 10:32:48;;;;;;;7.40;6.57;;;24.90;61.20;;;;;;5010369;28;20540;-59
2021/07/30 10:35:15;;;;;;;8.70;7.10;;;25.00;60.10;;;;;;5018663;28;20487;-60
2021/07/30 10:37:42;;;;;;;9.13;7.20;;;25.10;59.60;;;;;;5046502;28;20864;-60
2021/07/30 10:40:21;;;;;;;8.00;6.60;;;25.20;58.90;;;;;;5029995;28;20488;-59
2021/07/30 10:43:05;;;;;;;11.17;6.80;;;25.20;59.70;;;;;;5013195;28;20537;-60
2021/07/30 10:45:39;;;;;;;11.73;6.70;;;25.40;59.80;;;;;;5025998;28;20458;-60
2021/07/30 10:48:13;;;;;;;11.83;6.90;;;25.40;59.60;;;;;;5039496;28;20433;-59
2021/07/30 10:50:46;;;;;;;10.80;7.00;;;25.50;58.90;;;;;;5041212;28;20515;-60
2021/07/30 10:53:34;;;;;;;10.40;6.90;;;25.40;59.10;;;;;;5039630;28;20454;-62
2021/07/30 10:56:04;;;;;;;8.13;6.17;;;25.30;60.10;;;;;;5024165;28;20493;-61
2021/07/30 10:58:45;;;;;;;10.07;6.70;;;25.40;60.80;;;;;;5023766;28;20429;-58
2021/07/30 11:01:19;;;;;;;11.97;6.73;;;25.50;59.40;;;;;;5024187;28;20434;-60
2021/07/30 11:03:53;;;;;;;8.23;7.17;;;25.60;59.50;;;;;;5015597;28;20511;-57
2021/07/30 11:06:30;;;;;;;9.80;6.53;;;25.70;61.60;;;;;;5021170;28;20457;-60
2021/07/30 11:09:08;;;;;;;12.63;7.23;;;25.80;59.20;;;;;;5021688;28;20429;-59
2021/07/30 11:11:55;;;;;;;10.13;6.47;;;25.70;61.20;;;;;;5022025;28;20791;-61
2021/07/30 11:14:34;;;;;;;9.30;7.30;;;25.70;60.20;;;;;;5027434;28;20438;-59
2021/07/30 11:17:08;;;;;;;8.40;6.50;;;25.80;59.80;;;;;;5033738;28;20808;-60
2021/07/30 11:19:46;;;;;;;12.87;6.97;;;25.90;57.80;;;;;;5028162;28;20587;-59
2021/07/30 11:22:17;;;;;;;6.97;6.27;;;25.90;58.90;;;;;;5045186;28;20906;-61
2021/07/30 11:24:52;;;;;;;9.47;6.83;;;26.00;58.20;;;;;;5034630;28;20447;-60
2021/07/30 11:27:20;;;;;;;10.87;7.40;;;26.20;57.90;;;;;;5020712;28;20451;-58
2021/07/30 11:29:50;;;;;;;10.43;7.20;;;26.30;56.90;;;;;;5020210;28;20410;-60
2021/07/30 11:32:18;;;;;;;10.27;6.57;;;26.40;58.00;;;;;;5028778;28;20434;-60
2021/07/30 11:34:49;;;;;;;12.00;6.77;;;26.60;59.30;;;;;;5026039;28;20899;-60
2021/07/30 11:37:25;;;;;;;8.57;6.90;;;26.80;56.20;;;;;;5021899;28;20814;-60
2021/07/30 11:39:53;;;;;;;11.83;6.47;;;26.90;56.40;;;;;;5025765;28;20485;-60
2021/07/30 11:42:30;;;;;;;10.33;7.43;;;27.10;56.40;;;;;;5028754;28;20437;-60
2021/07/30 11:45:02;;;;;;;9.17;7.13;;;27.30;55.10;;;;;;5034705;28;20482;-62
2021/07/30 11:47:30;;;;;;;8.60;6.87;;;27.30;54.40;;;;;;5014200;28;20966;-61
2021/07/30 11:50:03;;;;;;;7.90;7.00;;;27.40;55.10;;;;;;5025360;28;20499;-61
2021/07/30 11:52:30;;;;;;;7.80;6.93;;;27.60;54.00;;;;;;5030766;28;20428;-61
2021/07/30 11:55:11;;;;;;;10.83;7.10;;;27.70;53.00;;;;;;5024242;28;21174;-61
2021/07/30 11:57:37;;;;;;;7.90;7.00;;;27.70;52.60;;;;;;5022995;28;21049;-60
2021/07/30 12:00:02;;;;;;;8.60;7.00;;;27.80;53.50;;;;;;5025128;28;20430;-60
2021/07/30 12:02:28;;;;;;;7.20;6.50;;;27.90;53.00;;;;;;5029240;28;20639;-61
2021/07/30 12:04:57;;;;;;;7.60;6.90;;;27.90;52.60;;;;;;5023246;28;20175;-61
2021/07/30 12:07:30;;;;;;;7.80;7.00;;;27.90;52.60;;;;;;5026536;28;20171;-60
2021/07/30 12:09:58;;;;;;;9.63;7.10;;;27.90;52.20;;;;;;5031761;28;20171;-60
2021/07/30 12:12:31;;;;;;;8.27;6.60;;;28.00;51.10;;;;;;5025524;28;20270;-61
2021/07/30 12:14:58;;;;;;;10.00;7.10;;;27.90;52.30;;;;;;5023897;28;20456;-61
2021/07/30 12:17:29;;;;;;;7.80;7.00;;;28.00;51.70;;;;;;5032115;28;20175;-62
2021/07/30 12:20:01;;;;;;;10.07;6.70;;;28.00;52.00;;;;;;5027718;28;21147;-63
2021/07/30 12:22:41;;;;;;;8.57;7.10;;;27.90;52.20;;;;;;5026125;28;20706;-63
2021/07/30 12:25:32;;;;;;;10.70;7.47;;;27.80;52.70;;;;;;5021208;28;20724;-62
2021/07/30 12:28:11;;;;;;;10.50;7.47;;;27.70;53.20;;;;;;5019309;28;20178;-60
2021/07/30 12:30:39;;;;;;;9.10;7.70;;;27.60;54.80;;;;;;5023218;28;20175;-63
2021/07/30 12:33:30;;;;;;;9.30;7.53;;;27.70;55.20;;;;;;5023310;28;20226;-60
2021/07/30 12:36:04;;;;;;;14.00;7.73;;;28.10;54.10;;;;;;5029670;28;20237;-62
2021/07/30 12:38:30;;;;;;;8.37;7.20;;;28.30;52.00;;;;;;5020033;28;20179;-61
2021/07/30 12:41:34;;;;;;;10.03;7.47;;;28.60;52.90;;;;;;5021387;28;20183;-61
2021/07/30 12:44:18;;;;;;;10.97;7.97;;;28.70;52.00;;;;;;5026665;28;20202;-62
2021/07/30 12:46:58;;;;;;;10.03;7.43;;;28.80;50.90;;;;;;5026507;28;20282;-64
2021/07/30 12:49:38;;;;;;;9.47;7.43;;;28.90;50.80;;;;;;5027214;28;20163;-64
2021/07/30 12:52:32;;;;;;;9.33;7.70;;;29.10;50.70;;;;;;5017747;28;20193;-63
2021/07/30 12:55:12;;;;;;;9.03;7.37;;;29.40;51.00;;;;;;5021770;28;20207;-63
2021/07/30 13:00:50;;;;;;;11.60;8.07;;;29.60;49.30;;;;;;5042131;28;20293;-62